Time;durP1;ratioP1;P1;durP2;ratioP2;P2;SDS_P1;SDS_P2;PMS_P1;PMS_P2;Temp;Humidity;BMP_temperature;BMP_pressure;BME280_temperature;BME280_humidity;BME280_pressure;Samples;Min_cycle;Max_cycle;Signal;HPM_P1;HPM_P2
2023/05/28 00:00:15;;;;;;;;;;;16.80;99.70;;;;;;8374726;28;19925;-70
2023/05/28 00:04:17;;;;;;;;;;;16.80;99.70;;;;;;8389689;28;19928;-70
2023/05/28 00:08:19;;;;;;;;;;;16.70;99.70;;;;;;8381899;28;20439;-70
2023/05/28 00:12:20;;;;;;;;;;;16.70;99.80;;;;;;8389688;28;19924;-71
2023/05/28 00:16:22;;;;;;;;;;;16.60;99.80;;;;;;8383168;28;19932;-70
2023/05/28 00:20:25;;;;;;;;;;;16.60;99.90;;;;;;8390921;28;19954;-71
2023/05/28 00:24:27;;;;;;;;;;;16.50;99.90;;;;;;8393287;28;19928;-71
2023/05/28 00:28:29;;;;;;;;;;;16.40;99.90;;;;;;8387407;28;20281;-70
2023/05/28 00:32:30;;;;;;;;;;;16.40;99.90;;;;;;8385585;28;20338;-70
2023/05/28 00:36:32;;;;;;;;;;;16.30;99.90;;;;;;8382693;28;19968;-71
2023/05/28 00:40:34;;;;;;;;;;;16.30;99.90;;;;;;8385499;28;19931;-70
2023/05/28 00:44:35;;;;;;;;;;;16.20;99.90;;;;;;8375902;28;20407;-71
2023/05/28 00:48:38;;;;;;;;;;;16.10;99.90;;;;;;8389209;28;19925;-70
2023/05/28 00:52:40;;;;;;;;;;;16.00;99.90;;;;;;8391684;28;19964;-70
2023/05/28 01:11:46;;;;;;;;;;;15.90;99.90;;;;;;8382636;28;20344;-71
2023/05/28 01:15:48;;;;;;;;;;;15.80;99.90;;;;;;8364590;28;19936;-70
2023/05/28 01:19:50;;;;;;;;;;;15.80;99.90;;;;;;8382659;28;20291;-71
2023/05/28 01:23:52;;;;;;;;;;;15.80;99.90;;;;;;8380018;28;19925;-70
2023/05/28 01:27:54;;;;;;;;;;;15.80;99.90;;;;;;8385722;28;20041;-71
2023/05/28 01:31:55;;;;;;;;;;;15.70;99.90;;;;;;8378911;28;20369;-71
2023/05/28 01:35:58;;;;;;;;;;;15.70;99.90;;;;;;8362827;28;20380;-71
2023/05/28 01:40:02;;;;;;;;;;;15.70;99.90;;;;;;8378806;28;20215;-71
2023/05/28 01:44:06;;;;;;;;;;;15.60;99.90;;;;;;8383915;28;19930;-71
2023/05/28 01:48:08;;;;;;;;;;;15.60;99.90;;;;;;8395117;28;20424;-70
2023/05/28 01:52:12;;;;;;;;;;;15.60;99.90;;;;;;8382747;28;19925;-71
2023/05/28 01:56:14;;;;;;;;;;;15.50;99.90;;;;;;8381396;28;19929;-71
2023/05/28 02:00:16;;;;;;;;;;;15.50;99.90;;;;;;8382619;28;20258;-71
2023/05/28 02:04:17;;;;;;;;;;;15.40;99.90;;;;;;8366549;28;20360;-71
2023/05/28 02:08:19;;;;;;;;;;;15.40;99.90;;;;;;8388551;28;19924;-70
2023/05/28 02:12:21;;;;;;;;;;;15.30;99.90;;;;;;8378224;28;19924;-70
2023/05/28 02:16:23;;;;;;;;;;;15.30;99.90;;;;;;8393103;28;19924;-70
2023/05/28 02:20:25;;;;;;;;;;;15.30;99.90;;;;;;8385811;28;19925;-71
2023/05/28 02:34:46;;;;;;;;;;;15.10;99.90;;;;;;8398138;28;19973;-71
2023/05/28 02:38:47;;;;;;;;;;;15.10;99.90;;;;;;8387154;28;19924;-71
2023/05/28 02:42:49;;;;;;;;;;;15.10;99.90;;;;;;8372284;28;19939;-71
2023/05/28 02:46:51;;;;;;;;;;;15.00;99.90;;;;;;8395955;28;20006;-71
2023/05/28 02:50:53;;;;;;;;;;;15.00;99.90;;;;;;8399508;28;19947;-71
2023/05/28 02:54:55;;;;;;;;;;;15.00;99.90;;;;;;8374410;28;19977;-70
2023/05/28 02:58:56;;;;;;;;;;;15.00;99.90;;;;;;8384623;28;19928;-70
2023/05/28 03:02:58;;;;;;;;;;;15.00;99.90;;;;;;8386907;28;20049;-71
2023/05/28 03:07:00;;;;;;;;;;;14.90;99.90;;;;;;8379803;28;20288;-70
2023/05/28 03:11:01;;;;;;;;;;;14.80;99.90;;;;;;8387301;28;19947;-70
2023/05/28 03:15:03;;;;;;;;;;;14.80;99.90;;;;;;8383581;28;20001;-71
2023/05/28 03:19:05;;;;;;;;;;;14.80;99.90;;;;;;8386385;28;19970;-71
2023/05/28 03:23:07;;;;;;;;;;;14.80;99.90;;;;;;8388342;28;20287;-70
2023/05/28 03:27:09;;;;;;;;;;;14.70;99.90;;;;;;8372761;28;19932;-71
2023/05/28 03:31:11;;;;;;;;;;;14.70;99.90;;;;;;8391004;28;19936;-71
2023/05/28 03:35:13;;;;;;;;;;;14.70;99.90;;;;;;8371887;28;19924;-71
2023/05/28 03:39:15;;;;;;;;;;;14.70;99.90;;;;;;8395374;28;19950;-71
2023/05/28 03:43:16;;;;;;;;;;;14.70;99.90;;;;;;8396776;28;20270;-70
2023/05/28 03:47:18;;;;;;;;;;;14.60;99.90;;;;;;8370608;28;19924;-71
2023/05/28 03:56:19;;;;;;;;;;;14.50;99.90;;;;;;8384589;28;19959;-70
2023/05/28 04:10:27;;;;;;;;;;;14.30;99.90;;;;;;8382485;28;20194;-70
2023/05/28 04:14:29;;;;;;;;;;;14.30;99.90;;;;;;8355663;28;19928;-70
2023/05/28 04:18:30;;;;;;;;;;;14.30;99.90;;;;;;8385915;28;20134;-71
2023/05/28 04:22:33;;;;;;;;;;;14.20;99.90;;;;;;8392777;28;19941;-71
2023/05/28 04:26:35;;;;;;;;;;;14.20;99.90;;;;;;8386018;28;20263;-70
2023/05/28 04:40:44;;;;;;;;;;;14.30;99.90;;;;;;8384520;28;19920;-71
2023/05/28 04:44:46;;;;;;;;;;;14.30;99.90;;;;;;8387410;28;19936;-71
2023/05/28 04:48:47;;;;;;;;;;;14.30;99.90;;;;;;8388318;28;20284;-70
2023/05/28 04:52:49;;;;;;;;;;;14.30;99.90;;;;;;8369679;28;19946;-70
2023/05/28 04:56:51;;;;;;;;;;;14.40;99.90;;;;;;8377303;28;19971;-71
2023/05/28 05:00:53;;;;;;;;;;;14.40;99.90;;;;;;8389293;28;19931;-71
2023/05/28 05:04:56;;;;;;;;;;;14.40;99.90;;;;;;8381091;28;19932;-70
2023/05/28 05:08:58;;;;;;;;;;;14.40;99.90;;;;;;8365623;28;19924;-71
2023/05/28 05:13:00;;;;;;;;;;;14.40;99.90;;;;;;8379689;28;19951;-70
2023/05/28 05:17:02;;;;;;;;;;;14.50;99.90;;;;;;8386010;28;20287;-71
2023/05/28 05:21:04;;;;;;;;;;;14.40;99.90;;;;;;8388568;28;19924;-70
2023/05/28 05:25:06;;;;;;;;;;;14.50;99.90;;;;;;8391153;28;19924;-70
2023/05/28 05:29:07;;;;;;;;;;;14.50;99.90;;;;;;8394347;28;20269;-70
2023/05/28 05:33:09;;;;;;;;;;;14.60;99.90;;;;;;8375787;28;20292;-70
2023/05/28 05:42:17;;;;;;;;;;;15.00;99.90;;;;;;8382681;28;19983;-70
2023/05/28 05:46:19;;;;;;;;;;;15.20;99.90;;;;;;8381894;28;19924;-71
2023/05/28 05:50:21;;;;;;;;;;;15.30;99.90;;;;;;8385661;28;19924;-70
2023/05/28 05:54:23;;;;;;;;;;;15.50;99.90;;;;;;8401005;28;19924;-70
2023/05/28 05:58:25;;;;;;;;;;;15.60;99.90;;;;;;8388559;28;19925;-70
2023/05/28 06:02:27;;;;;;;;;;;15.70;99.90;;;;;;8386912;28;19932;-70
2023/05/28 06:06:29;;;;;;;;;;;15.80;99.90;;;;;;8368057;28;19928;-70
2023/05/28 06:10:30;;;;;;;;;;;15.90;99.90;;;;;;8384467;28;19981;-70
2023/05/28 06:14:32;;;;;;;;;;;16.00;99.90;;;;;;8385281;28;19929;-71
2023/05/28 06:18:35;;;;;;;;;;;16.20;99.90;;;;;;8379381;28;19991;-71
2023/05/28 06:22:37;;;;;;;;;;;16.20;99.90;;;;;;8372456;28;20418;-70
2023/05/28 06:26:40;;;;;;;;;;;16.30;99.90;;;;;;8381813;28;20127;-70
2023/05/28 06:30:42;;;;;;;;;;;16.30;99.90;;;;;;8390095;28;19951;-70
2023/05/28 06:34:44;;;;;;;;;;;16.40;99.90;;;;;;8388969;28;19924;-71
2023/05/28 06:38:45;;;;;;;;;;;16.50;99.90;;;;;;8381667;28;19928;-70
2023/05/28 06:42:47;;;;;;;;;;;16.70;99.90;;;;;;8375994;28;20310;-70
2023/05/28 06:46:50;;;;;;;;;;;16.80;99.90;;;;;;8376268;28;19925;-71
2023/05/28 06:50:51;;;;;;;;;;;16.90;99.90;;;;;;8386362;28;19977;-70
2023/05/28 06:54:53;;;;;;;;;;;17.10;99.90;;;;;;8385876;28;19931;-71
2023/05/28 06:58:55;;;;;;;;;;;17.20;99.90;;;;;;8388289;28;19977;-71
2023/05/28 07:02:56;;;;;;;;;;;17.40;99.90;;;;;;8388034;28;20372;-71
2023/05/28 07:17:06;;;;;;;;;;;17.70;99.90;;;;;;8386894;28;19965;-71
2023/05/28 07:21:08;;;;;;;;;;;17.80;99.90;;;;;;8386391;28;19924;-71
2023/05/28 07:25:09;;;;;;;;;;;17.90;99.90;;;;;;8388179;28;19986;-71
2023/05/28 07:29:14;;;;;;;;;;;17.90;99.90;;;;;;8377366;28;19929;-71
2023/05/28 07:33:15;;;;;;;;;;;18.10;99.90;;;;;;8392920;28;19929;-71
2023/05/28 07:37:17;;;;;;;;;;;18.20;99.90;;;;;;8389189;28;19928;-71
2023/05/28 07:41:19;;;;;;;;;;;18.30;99.90;;;;;;8393183;28;19939;-71
2023/05/28 07:45:20;;;;;;;;;;;18.30;99.90;;;;;;8372669;28;19924;-71
2023/05/28 07:49:22;;;;;;;;;;;18.40;99.90;;;;;;8368045;28;19932;-71
2023/05/28 07:53:24;;;;;;;;;;;18.60;99.90;;;;;;8399435;28;19931;-71
2023/05/28 07:57:26;;;;;;;;;;;18.70;99.90;;;;;;8388647;28;19932;-71
2023/05/28 08:01:28;;;;;;;;;;;18.80;99.90;;;;;;8385177;28;19932;-71
2023/05/28 08:05:29;;;;;;;;;;;18.90;99.90;;;;;;8379691;28;19983;-70
2023/05/28 08:09:31;;;;;;;;;;;19.00;99.90;;;;;;8387010;28;19928;-71
2023/05/28 08:13:33;;;;;;;;;;;19.00;99.90;;;;;;8372389;28;19925;-71
2023/05/28 08:17:35;;;;;;;;;;;19.10;99.90;;;;;;8392911;28;19932;-70
2023/05/28 08:21:36;;;;;;;;;;;19.20;99.90;;;;;;8388320;28;19932;-71
2023/05/28 08:25:40;;;;;;;;;;;19.30;99.90;;;;;;8382831;28;19964;-71
2023/05/28 08:29:42;;;;;;;;;;;19.40;99.90;;;;;;8378849;28;19932;-70
2023/05/28 08:33:43;;;;;;;;;;;19.50;99.90;;;;;;8381369;28;19940;-71
2023/05/28 08:37:45;;;;;;;;;;;19.60;99.90;;;;;;8381485;28;19932;-71
2023/05/28 08:41:47;;;;;;;;;;;19.70;99.90;;;;;;8377024;28;19928;-71
2023/05/28 08:45:52;;;;;;;;;;;19.80;99.90;;;;;;8383165;28;19933;-70
2023/05/28 08:49:54;;;;;;;;;;;20.00;99.90;;;;;;8390226;28;19982;-70
2023/05/28 08:53:56;;;;;;;;;;;20.00;99.90;;;;;;8390682;28;19952;-70
2023/05/28 08:57:58;;;;;;;;;;;20.10;99.90;;;;;;8390173;28;19939;-71
2023/05/28 09:01:59;;;;;;;;;;;20.10;99.90;;;;;;8375566;28;19970;-71
2023/05/28 09:06:01;;;;;;;;;;;20.20;99.90;;;;;;8379472;28;19932;-71
2023/05/28 09:10:03;;;;;;;;;;;20.30;99.90;;;;;;8350519;28;19936;-70
2023/05/28 09:14:12;;;;;;;;;;;20.30;99.90;;;;;;8371086;28;19936;-71
2023/05/28 09:18:18;;;;;;;;;;;20.30;99.90;;;;;;8363193;28;19940;-71
2023/05/28 09:22:20;;;;;;;;;;;20.30;99.90;;;;;;8361242;28;20023;-71
2023/05/28 09:26:22;;;;;;;;;;;20.30;99.90;;;;;;8363947;28;19928;-70
2023/05/28 09:30:24;;;;;;;;;;;20.30;99.90;;;;;;8365822;28;19928;-70
2023/05/28 09:34:29;;;;;;;;;;;20.30;99.90;;;;;;8368956;28;19935;-70
2023/05/28 09:38:39;;;;;;;;;;;20.40;99.90;;;;;;8364618;28;19933;-70
2023/05/28 09:42:41;;;;;;;;;;;20.50;99.90;;;;;;8361688;28;19925;-70
2023/05/28 09:46:45;;;;;;;;;;;20.70;99.90;;;;;;8358966;28;19982;-71
2023/05/28 09:50:47;;;;;;;;;;;20.80;99.90;;;;;;8358607;28;19939;-70
2023/05/28 09:54:50;;;;;;;;;;;20.80;99.90;;;;;;8356722;28;19974;-71
2023/05/28 09:58:53;;;;;;;;;;;20.80;99.90;;;;;;8357914;28;19924;-70
2023/05/28 10:02:55;;;;;;;;;;;20.70;99.90;;;;;;8363707;28;19933;-71
2023/05/28 10:06:57;;;;;;;;;;;20.70;99.90;;;;;;8360604;28;19925;-70
2023/05/28 10:11:01;;;;;;;;;;;20.70;99.90;;;;;;8362997;28;19935;-71
2023/05/28 10:15:03;;;;;;;;;;;20.70;99.90;;;;;;8356843;28;19958;-70
2023/05/28 10:19:05;;;;;;;;;;;20.80;99.90;;;;;;8360555;28;19986;-71
2023/05/28 10:23:08;;;;;;;;;;;20.80;99.90;;;;;;8359683;28;19936;-71
2023/05/28 10:27:13;;;;;;;;;;;20.80;99.90;;;;;;8360871;28;19925;-71
2023/05/28 10:31:20;;;;;;;;;;;20.90;99.90;;;;;;8348998;28;19936;-71
2023/05/28 10:35:22;;;;;;;;;;;21.00;99.90;;;;;;8357465;28;19925;-71
2023/05/28 10:39:24;;;;;;;;;;;21.00;99.90;;;;;;8346187;28;19933;-70
2023/05/28 10:43:39;;;;;;;;;;;21.10;99.90;;;;;;8368828;28;20322;-71
2023/05/28 10:47:41;;;;;;;;;;;21.10;99.90;;;;;;8369613;28;20966;-71
2023/05/28 10:51:56;;;;;;;;;;;21.20;99.90;;;;;;8365122;28;20092;-70
2023/05/28 10:56:00;;;;;;;;;;;21.20;99.90;;;;;;8361102;28;20399;-70
2023/05/28 11:00:10;;;;;;;;;;;21.30;99.90;;;;;;8365872;28;19928;-70
2023/05/28 11:04:11;;;;;;;;;;;21.30;99.90;;;;;;8378991;28;19935;-71
2023/05/28 11:08:13;;;;;;;;;;;21.40;99.90;;;;;;8370371;28;20006;-70
2023/05/28 11:12:15;;;;;;;;;;;21.50;99.90;;;;;;8367653;28;19925;-70
2023/05/28 11:16:18;;;;;;;;;;;21.50;99.90;;;;;;8360055;28;19928;-71
2023/05/28 11:20:20;;;;;;;;;;;21.60;99.90;;;;;;8355344;28;24330;-70
2023/05/28 11:24:22;;;;;;;;;;;21.70;99.90;;;;;;8359701;28;19940;-70
2023/05/28 11:28:24;;;;;;;;;;;21.70;99.90;;;;;;8361112;28;19928;-70
2023/05/28 11:32:27;;;;;;;;;;;21.80;99.90;;;;;;8366319;28;20325;-71
2023/05/28 11:36:29;;;;;;;;;;;21.80;99.90;;;;;;8357386;28;20355;-70
2023/05/28 11:40:34;;;;;;;;;;;21.90;99.90;;;;;;8355666;28;19932;-71
2023/05/28 11:44:42;;;;;;;;;;;22.00;99.90;;;;;;8373219;28;19961;-70
2023/05/28 11:48:45;;;;;;;;;;;22.10;99.90;;;;;;8359933;28;20311;-71
2023/05/28 11:52:46;;;;;;;;;;;22.20;99.90;;;;;;8367387;28;19924;-71
2023/05/28 11:56:49;;;;;;;;;;;22.30;99.90;;;;;;8365485;28;20008;-71
2023/05/28 12:00:55;;;;;;;;;;;22.30;99.90;;;;;;8358105;28;19928;-71
2023/05/28 12:04:57;;;;;;;;;;;22.30;99.90;;;;;;8364192;28;19933;-71
2023/05/28 12:09:03;;;;;;;;;;;22.40;99.90;;;;;;8360785;28;19925;-71
2023/05/28 12:13:05;;;;;;;;;;;22.50;99.90;;;;;;8345593;28;19932;-71
2023/05/28 12:17:08;;;;;;;;;;;22.50;99.90;;;;;;8366345;28;20025;-70
2023/05/28 12:21:18;;;;;;;;;;;22.60;99.90;;;;;;8367073;28;19936;-70
2023/05/28 12:25:20;;;;;;;;;;;22.60;99.90;;;;;;8340892;28;19955;-71
2023/05/28 12:29:22;;;;;;;;;;;22.60;99.90;;;;;;8363535;28;19933;-71
2023/05/28 12:33:23;;;;;;;;;;;22.70;99.90;;;;;;8365159;28;19928;-70
2023/05/28 12:37:26;;;;;;;;;;;22.80;99.90;;;;;;8380588;28;19936;-70
2023/05/28 12:41:28;;;;;;;;;;;22.80;99.90;;;;;;8367183;28;19933;-71
2023/05/28 12:45:30;;;;;;;;;;;22.80;99.90;;;;;;8364231;28;20388;-70
2023/05/28 12:49:32;;;;;;;;;;;22.80;99.90;;;;;;8366683;28;19933;-71
2023/05/28 12:53:34;;;;;;;;;;;22.80;99.90;;;;;;8362870;28;19931;-71
2023/05/28 12:57:35;;;;;;;;;;;22.80;99.90;;;;;;8360549;28;19952;-71
2023/05/28 13:01:38;;;;;;;;;;;22.90;99.90;;;;;;8361522;28;19933;-70
2023/05/28 13:05:40;;;;;;;;;;;23.00;99.90;;;;;;8376110;28;19924;-70
2023/05/28 13:09:42;;;;;;;;;;;22.90;99.90;;;;;;8373925;28;20565;-71
2023/05/28 13:13:43;;;;;;;;;;;22.80;99.90;;;;;;8356882;28;19951;-71
2023/05/28 13:17:45;;;;;;;;;;;22.80;99.90;;;;;;8362283;28;19925;-71
2023/05/28 13:21:47;;;;;;;;;;;22.80;99.90;;;;;;8360670;28;20364;-71
2023/05/28 13:25:48;;;;;;;;;;;22.80;99.90;;;;;;8356770;28;20140;-71
2023/05/28 13:29:50;;;;;;;;;;;22.90;99.90;;;;;;8358564;28;19951;-70
2023/05/28 13:33:52;;;;;;;;;;;23.00;99.90;;;;;;8358857;28;20383;-71
2023/05/28 13:37:55;;;;;;;;;;;22.90;99.90;;;;;;8364764;28;19936;-71
2023/05/28 13:41:57;;;;;;;;;;;22.90;99.90;;;;;;8365134;28;20279;-70
2023/05/28 13:45:59;;;;;;;;;;;22.90;99.90;;;;;;8360868;28;19928;-71
2023/05/28 13:50:01;;;;;;;;;;;22.80;99.90;;;;;;8364210;28;19932;-71
2023/05/28 13:54:03;;;;;;;;;;;22.80;99.90;;;;;;8367393;28;20703;-71
2023/05/28 13:58:04;;;;;;;;;;;22.70;99.90;;;;;;8367531;28;19945;-71
2023/05/28 14:02:06;;;;;;;;;;;22.60;99.90;;;;;;8364056;28;19932;-71
2023/05/28 14:06:08;;;;;;;;;;;22.60;99.90;;;;;;8363623;28;20647;-71
2023/05/28 14:10:10;;;;;;;;;;;22.60;99.90;;;;;;8372252;28;19924;-71
2023/05/28 14:14:12;;;;;;;;;;;22.50;99.90;;;;;;8363569;28;19928;-71
2023/05/28 14:18:14;;;;;;;;;;;22.50;99.90;;;;;;8363456;28;19931;-71
2023/05/28 14:22:16;;;;;;;;;;;22.50;99.90;;;;;;8365948;28;19929;-71
2023/05/28 14:26:18;;;;;;;;;;;22.60;99.90;;;;;;8367128;28;19928;-71
2023/05/28 14:30:19;;;;;;;;;;;22.60;99.90;;;;;;8365603;28;20370;-71
2023/05/28 14:34:21;;;;;;;;;;;22.70;99.90;;;;;;8362316;28;20343;-71
2023/05/28 14:38:23;;;;;;;;;;;22.70;99.90;;;;;;8356622;28;19936;-71
2023/05/28 14:42:24;;;;;;;;;;;22.80;99.90;;;;;;8364147;28;19939;-71
2023/05/28 14:46:26;;;;;;;;;;;22.90;99.90;;;;;;8371567;28;20384;-70
2023/05/28 14:50:28;;;;;;;;;;;22.90;99.90;;;;;;8373199;28;20352;-70
2023/05/28 14:54:29;;;;;;;;;;;23.00;99.90;;;;;;8368478;28;19992;-71
2023/05/28 14:58:31;;;;;;;;;;;23.00;99.90;;;;;;8366438;28;19956;-71
2023/05/28 15:02:34;;;;;;;;;;;23.00;99.80;;;;;;8367711;28;19952;-71
2023/05/28 15:06:36;;;;;;;;;;;23.10;99.80;;;;;;8373534;28;20253;-71
2023/05/28 15:10:38;;;;;;;;;;;23.10;99.90;;;;;;8358173;28;19928;-70
2023/05/28 15:14:40;;;;;;;;;;;23.10;99.90;;;;;;8357681;28;20683;-71
2023/05/28 15:18:41;;;;;;;;;;;23.20;99.80;;;;;;8367113;28;19981;-72
2023/05/28 15:22:43;;;;;;;;;;;23.30;99.80;;;;;;8361482;28;19929;-71
2023/05/28 15:26:45;;;;;;;;;;;23.40;99.60;;;;;;8387262;28;20772;-72
2023/05/28 15:30:46;;;;;;;;;;;23.50;99.80;;;;;;8379402;28;20265;-71
2023/05/28 15:34:48;;;;;;;;;;;23.60;99.00;;;;;;8363624;28;19982;-71
2023/05/28 15:38:50;;;;;;;;;;;23.60;99.30;;;;;;8366680;28;20038;-72
2023/05/28 15:42:53;;;;;;;;;;;23.80;99.10;;;;;;8359708;28;19947;-71
2023/05/28 15:46:58;;;;;;;;;;;24.00;99.10;;;;;;8375271;28;19991;-71
2023/05/28 15:51:00;;;;;;;;;;;24.30;99.50;;;;;;8353835;28;20365;-72
2023/05/28 15:55:03;;;;;;;;;;;24.70;99.20;;;;;;8367847;28;19928;-71
2023/05/28 15:59:05;;;;;;;;;;;25.20;99.30;;;;;;8357504;28;20027;-72
2023/05/28 16:03:08;;;;;;;;;;;25.50;98.70;;;;;;8367391;28;19928;-72
2023/05/28 16:07:10;;;;;;;;;;;25.80;98.60;;;;;;8361529;28;19929;-72
2023/05/28 16:11:13;;;;;;;;;;;26.00;98.80;;;;;;8382952;28;19925;-72
2023/05/28 16:15:15;;;;;;;;;;;26.10;98.90;;;;;;8364011;28;19925;-72
2023/05/28 16:19:17;;;;;;;;;;;26.20;99.10;;;;;;8360781;28;19933;-72
2023/05/28 16:23:19;;;;;;;;;;;26.40;99.10;;;;;;8368967;28;20297;-71
2023/05/28 16:27:21;;;;;;;;;;;26.50;99.30;;;;;;8357928;28;20300;-71
2023/05/28 16:31:23;;;;;;;;;;;26.60;99.30;;;;;;8363023;28;19972;-71
2023/05/28 16:35:25;;;;;;;;;;;26.50;99.10;;;;;;8368404;28;19931;-72
2023/05/28 16:39:27;;;;;;;;;;;26.60;99.80;;;;;;8357625;28;19925;-72
2023/05/28 16:43:29;;;;;;;;;;;26.60;99.70;;;;;;8363646;28;19983;-72
2023/05/28 16:47:31;;;;;;;;;;;26.60;99.60;;;;;;8364602;28;19925;-71
2023/05/28 16:51:34;;;;;;;;;;;26.50;99.50;;;;;;8351908;28;19981;-72
2023/05/28 16:55:38;;;;;;;;;;;26.40;99.20;;;;;;8361019;28;19932;-71
2023/05/28 16:59:40;;;;;;;;;;;26.10;98.00;;;;;;8357038;28;19932;-71
2023/05/28 17:03:41;;;;;;;;;;;25.80;98.30;;;;;;8361929;28;19925;-71
2023/05/28 17:07:43;;;;;;;;;;;25.60;98.00;;;;;;8363440;28;19928;-72
2023/05/28 17:11:45;;;;;;;;;;;25.30;98.10;;;;;;8342773;28;19932;-71
2023/05/28 17:15:47;;;;;;;;;;;25.00;97.70;;;;;;8366683;28;20010;-71
2023/05/28 17:19:49;;;;;;;;;;;24.60;97.30;;;;;;8361865;28;19951;-71
2023/05/28 17:23:50;;;;;;;;;;;24.30;97.20;;;;;;8355969;28;19925;-70
2023/05/28 17:27:52;;;;;;;;;;;24.00;96.80;;;;;;8355609;28;19932;-71
2023/05/28 17:31:54;;;;;;;;;;;23.80;96.70;;;;;;8361811;28;19924;-71
2023/05/28 17:35:56;;;;;;;;;;;23.60;96.60;;;;;;8359396;28;20454;-71
2023/05/28 17:39:57;;;;;;;;;;;23.50;96.50;;;;;;8341821;28;19931;-70
2023/05/28 17:44:01;;;;;;;;;;;23.20;96.30;;;;;;8357711;28;19928;-71
2023/05/28 17:48:03;;;;;;;;;;;23.10;96.20;;;;;;8357840;28;19935;-71
2023/05/28 17:52:04;;;;;;;;;;;22.90;96.20;;;;;;8345901;28;20039;-71
2023/05/28 17:56:06;;;;;;;;;;;22.80;96.20;;;;;;8338035;28;20063;-71
2023/05/28 18:00:11;;;;;;;;;;;22.50;96.10;;;;;;8353395;28;19933;-71
2023/05/28 18:04:13;;;;;;;;;;;22.40;96.10;;;;;;8351860;28;19933;-71
2023/05/28 18:08:15;;;;;;;;;;;22.30;96.10;;;;;;8355044;28;20222;-71
2023/05/28 18:12:17;;;;;;;;;;;22.20;96.20;;;;;;8339398;28;19925;-71
2023/05/28 18:16:19;;;;;;;;;;;22.10;96.20;;;;;;8354159;28;19932;-70
2023/05/28 18:20:21;;;;;;;;;;;22.00;96.20;;;;;;8353388;28;19955;-71
2023/05/28 18:24:23;;;;;;;;;;;21.90;96.20;;;;;;8355137;28;19929;-70
2023/05/28 18:28:24;;;;;;;;;;;21.80;96.20;;;;;;8352796;28;19983;-71
2023/05/28 18:32:26;;;;;;;;;;;21.70;96.20;;;;;;8335389;28;19932;-71
2023/05/28 18:36:29;;;;;;;;;;;21.50;96.50;;;;;;8356477;28;20019;-71
2023/05/28 18:40:30;;;;;;;;;;;21.40;96.30;;;;;;8357806;28;20014;-71
2023/05/28 18:44:32;;;;;;;;;;;21.40;96.30;;;;;;8357304;28;19933;-71
2023/05/28 18:48:34;;;;;;;;;;;21.20;96.20;;;;;;8369274;28;19940;-71
2023/05/28 18:52:35;;;;;;;;;;;21.10;96.20;;;;;;8390008;28;19935;-70
2023/05/28 18:56:37;;;;;;;;;;;21.00;96.20;;;;;;8374848;28;19989;-70
2023/05/28 19:00:39;;;;;;;;;;;20.80;96.10;;;;;;8364577;28;19928;-71
2023/05/28 19:04:40;;;;;;;;;;;20.60;96.10;;;;;;8358250;28;19929;-70
2023/05/28 19:08:42;;;;;;;;;;;20.50;96.40;;;;;;8357540;28;22583;-71
2023/05/28 19:12:44;;;;;;;;;;;20.40;96.20;;;;;;8356254;28;19939;-70
2023/05/28 19:16:46;;;;;;;;;;;20.30;96.10;;;;;;8359733;28;19928;-71
2023/05/28 19:20:47;;;;;;;;;;;20.30;96.10;;;;;;8365312;28;20654;-71
2023/05/28 19:24:53;;;;;;;;;;;20.20;96.10;;;;;;8359456;28;20048;-70
2023/05/28 19:28:56;;;;;;;;;;;20.10;96.10;;;;;;8363915;28;20376;-71
2023/05/28 19:32:57;;;;;;;;;;;19.90;96.10;;;;;;8363516;28;20390;-71
2023/05/28 19:36:59;;;;;;;;;;;19.80;96.10;;;;;;8367391;28;19968;-71
2023/05/28 19:41:01;;;;;;;;;;;19.70;96.20;;;;;;8360750;28;19936;-71
2023/05/28 19:45:03;;;;;;;;;;;19.60;96.20;;;;;;8364647;28;19930;-71
2023/05/28 19:49:05;;;;;;;;;;;19.50;96.20;;;;;;8362313;28;19998;-71
2023/05/28 19:53:07;;;;;;;;;;;19.40;96.20;;;;;;8347663;28;19936;-71
2023/05/28 19:57:11;;;;;;;;;;;19.30;96.20;;;;;;8359553;28;19933;-71
2023/05/28 20:11:28;;;;;;;;;;;19.00;96.40;;;;;;8363995;28;19920;-70
2023/05/28 20:15:29;;;;;;;;;;;18.80;96.50;;;;;;8363459;28;19932;-71
2023/05/28 20:19:31;;;;;;;;;;;18.70;96.60;;;;;;8365104;28;19925;-71
2023/05/28 20:23:34;;;;;;;;;;;18.60;96.70;;;;;;8364150;28;19982;-71
2023/05/28 20:27:36;;;;;;;;;;;18.50;96.70;;;;;;8342814;28;19986;-71
2023/05/28 20:31:38;;;;;;;;;;;18.40;96.70;;;;;;8366787;28;19928;-71
2023/05/28 20:35:39;;;;;;;;;;;18.30;96.80;;;;;;8370158;28;19924;-71
2023/05/28 20:39:43;;;;;;;;;;;18.20;96.80;;;;;;8349368;28;20335;-71
2023/05/28 20:43:44;;;;;;;;;;;18.10;97.00;;;;;;8362134;28;19928;-71
2023/05/28 20:47:46;;;;;;;;;;;18.00;97.00;;;;;;8358733;28;19933;-71
2023/05/28 20:51:48;;;;;;;;;;;17.90;97.10;;;;;;8363913;28;20371;-70
2023/05/28 20:55:49;;;;;;;;;;;17.80;97.10;;;;;;8357513;28;20692;-71
2023/05/28 20:59:51;;;;;;;;;;;17.70;97.10;;;;;;8365561;28;19933;-71
2023/05/28 21:03:53;;;;;;;;;;;17.70;97.20;;;;;;8374878;28;19925;-71
2023/05/28 21:07:55;;;;;;;;;;;17.60;97.30;;;;;;8377681;28;19929;-71
2023/05/28 21:11:56;;;;;;;;;;;17.50;97.20;;;;;;8386621;28;19929;-71
2023/05/28 21:15:58;;;;;;;;;;;17.40;97.30;;;;;;8396394;28;19925;-71
2023/05/28 21:20:01;;;;;;;;;;;17.40;97.20;;;;;;8382198;28;19929;-71
2023/05/28 21:24:03;;;;;;;;;;;17.30;97.20;;;;;;8379979;28;20364;-72
2023/05/28 21:28:05;;;;;;;;;;;17.30;97.30;;;;;;8377039;28;19931;-70
2023/05/28 21:32:07;;;;;;;;;;;17.20;97.20;;;;;;8379382;28;19932;-70
2023/05/28 21:36:10;;;;;;;;;;;17.20;97.20;;;;;;8384508;28;19924;-71
2023/05/28 21:40:11;;;;;;;;;;;17.10;97.30;;;;;;8378429;28;19946;-70
2023/05/28 21:44:13;;;;;;;;;;;17.10;97.30;;;;;;8372691;28;19928;-71
2023/05/28 21:48:16;;;;;;;;;;;16.90;97.60;;;;;;8382603;28;19935;-70
2023/05/28 21:52:17;;;;;;;;;;;16.90;97.40;;;;;;8384311;28;19924;-71
2023/05/28 21:56:19;;;;;;;;;;;16.80;97.30;;;;;;8367936;28;19955;-71
2023/05/28 22:00:22;;;;;;;;;;;16.80;97.20;;;;;;8379567;28;19925;-71
2023/05/28 22:04:23;;;;;;;;;;;16.80;97.20;;;;;;8385740;28;19925;-71
2023/05/28 22:08:25;;;;;;;;;;;16.70;97.10;;;;;;8383406;28;20074;-71
2023/05/28 22:12:29;;;;;;;;;;;16.60;97.10;;;;;;8388017;28;19932;-71
2023/05/28 22:16:30;;;;;;;;;;;16.50;97.10;;;;;;8379535;28;20320;-71
2023/05/28 22:20:32;;;;;;;;;;;16.40;97.10;;;;;;8381727;28;19929;-71
2023/05/28 22:24:44;;;;;;;;;;;16.30;97.00;;;;;;8386150;28;19929;-71
2023/05/28 22:28:46;;;;;;;;;;;16.30;97.00;;;;;;8389031;28;19932;-70
2023/05/28 22:32:59;;;;;;;;;;;16.20;96.90;;;;;;8389796;28;20292;-71
2023/05/28 22:37:01;;;;;;;;;;;16.10;96.90;;;;;;8390015;28;20375;-71
2023/05/28 22:41:03;;;;;;;;;;;16.00;96.90;;;;;;8392379;28;20323;-71
2023/05/28 22:50:08;;;;;;;;;;;15.80;96.70;;;;;;8391733;28;19959;-71
2023/05/28 22:54:12;;;;;;;;;;;15.70;96.70;;;;;;8395405;28;19929;-71
2023/05/28 22:58:14;;;;;;;;;;;15.60;96.70;;;;;;8410157;28;20038;-71
2023/05/28 23:02:16;;;;;;;;;;;15.50;96.60;;;;;;8389337;28;19932;-71
2023/05/28 23:06:18;;;;;;;;;;;15.50;96.60;;;;;;8367732;28;19932;-71
2023/05/28 23:10:19;;;;;;;;;;;15.40;96.60;;;;;;8374377;28;20308;-71
2023/05/28 23:14:21;;;;;;;;;;;15.40;96.60;;;;;;8379213;28;19925;-71
2023/05/28 23:18:23;;;;;;;;;;;15.30;96.60;;;;;;8380618;28;19924;-71
2023/05/28 23:22:25;;;;;;;;;;;15.30;96.60;;;;;;8391519;28;19940;-71
2023/05/28 23:26:26;;;;;;;;;;;15.20;96.60;;;;;;8388486;28;20389;-71
2023/05/28 23:30:28;;;;;;;;;;;15.10;96.60;;;;;;8374336;28;19925;-71
2023/05/28 23:34:30;;;;;;;;;;;15.00;96.60;;;;;;8401296;28;19933;-70
2023/05/28 23:38:31;;;;;;;;;;;14.90;96.60;;;;;;8383450;28;20283;-71
2023/05/28 23:42:33;;;;;;;;;;;14.90;96.70;;;;;;8389351;28;19935;-70
2023/05/28 23:46:36;;;;;;;;;;;14.80;96.60;;;;;;8387290;28;19929;-70
2023/05/28 23:50:38;;;;;;;;;;;14.80;96.60;;;;;;8386761;28;19928;-72
2023/05/28 23:54:40;;;;;;;;;;;14.80;96.60;;;;;;8368143;28;19924;-72
2023/05/28 23:58:41;;;;;;;;;;;14.70;96.60;;;;;;8381456;28;19924;-71
